createdAt,value
2023-03-31T00:00:11.964Z,35.42
2023-03-31T00:02:44.204Z,35.13
2023-03-31T00:05:10.559Z,35.05
2023-03-31T00:07:39.898Z,35.15
2023-03-31T00:10:17.203Z,35.35
2023-03-31T00:12:44.441Z,35.36
2023-03-31T00:15:10.861Z,35.10
2023-03-31T00:17:37.187Z,35.26
2023-03-31T00:20:05.718Z,35.08
2023-03-31T00:22:32.045Z,35.08
2023-03-31T00:24:58.350Z,35.09
2023-03-31T00:27:24.660Z,35.04
2023-03-31T00:29:53.049Z,35.32
2023-03-31T00:32:19.379Z,35.12
2023-03-31T00:34:46.191Z,35.13
2023-03-31T00:37:15.971Z,35.29
2023-03-31T00:39:43.235Z,35.06
2023-03-31T00:42:12.818Z,35.30
2023-03-31T00:45:03.096Z,35.07
2023-03-31T00:47:29.869Z,35.08
2023-03-31T00:49:59.692Z,35.34
2023-03-31T00:52:38.250Z,35.34
2023-03-31T00:55:06.566Z,35.33
2023-03-31T00:57:33.255Z,35.28
2023-03-31T01:00:01.321Z,35.16
2023-03-31T01:02:27.777Z,35.11
2023-03-31T01:04:59.248Z,35.29
2023-03-31T01:07:38.950Z,35.26
2023-03-31T01:10:05.463Z,35.39
2023-03-31T01:12:32.457Z,35.42
2023-03-31T01:14:58.813Z,35.31
2023-03-31T01:17:25.284Z,35.22
2023-03-31T01:20:18.145Z,35.24
2023-03-31T01:23:05.605Z,35.21
2023-03-31T01:25:51.174Z,35.49
2023-03-31T01:28:29.872Z,35.26
2023-03-31T01:31:05.289Z,35.35
2023-03-31T01:33:41.442Z,35.42
2023-03-31T01:36:37.269Z,35.35
2023-03-31T01:39:07.176Z,35.36
2023-03-31T01:41:38.980Z,35.46
2023-03-31T01:44:16.417Z,35.41
2023-03-31T01:46:53.193Z,35.48
2023-03-31T01:49:35.187Z,35.47
2023-03-31T01:52:20.368Z,35.60
2023-03-31T01:54:50.639Z,35.41
2023-03-31T01:57:16.987Z,35.61
2023-03-31T01:59:46.917Z,35.32
2023-03-31T02:02:14.853Z,35.46
2023-03-31T02:05:07.459Z,35.40
2023-03-31T02:07:42.387Z,35.20
2023-03-31T02:10:09.052Z,34.99
2023-03-31T02:12:35.362Z,35.52
2023-03-31T02:15:02.252Z,35.45
2023-03-31T02:17:32.596Z,35.26
2023-03-31T02:19:59.719Z,35.26
2023-03-31T02:22:26.857Z,35.44
2023-03-31T02:24:53.177Z,35.32
2023-03-31T02:27:21.816Z,35.37
2023-03-31T02:29:48.239Z,35.37
2023-03-31T02:32:21.236Z,35.48
2023-03-31T02:34:47.572Z,35.51
2023-03-31T02:37:13.880Z,35.42
2023-03-31T02:39:40.553Z,35.50
2023-03-31T02:42:09.911Z,35.50
2023-03-31T02:44:36.650Z,35.44
2023-03-31T02:47:03.664Z,35.53
2023-03-31T02:49:29.989Z,35.43
2023-03-31T02:51:56.309Z,35.30
2023-03-31T02:54:28.754Z,35.48
2023-03-31T02:57:13.467Z,35.56
2023-03-31T02:59:48.679Z,35.45
2023-03-31T03:02:27.696Z,35.30
2023-03-31T03:04:59.074Z,35.40
2023-03-31T03:07:31.416Z,35.65
2023-03-31T03:10:06.942Z,35.40
2023-03-31T03:12:42.451Z,35.59
2023-03-31T03:15:18.218Z,35.46
2023-03-31T03:17:44.972Z,35.29
2023-03-31T03:20:11.435Z,35.54
2023-03-31T03:22:38.024Z,35.43
2023-03-31T03:25:05.115Z,35.42
2023-03-31T03:27:32.684Z,35.50
2023-03-31T03:29:59.314Z,35.55
2023-03-31T03:32:25.732Z,35.40
2023-03-31T03:34:52.110Z,35.50
2023-03-31T03:37:18.480Z,35.62
2023-03-31T03:39:44.813Z,35.54
2023-03-31T03:42:11.117Z,35.53
2023-03-31T03:44:37.452Z,35.58
2023-03-31T03:47:03.782Z,35.60
2023-03-31T03:49:30.143Z,35.44
2023-03-31T03:51:56.443Z,35.56
2023-03-31T03:54:22.801Z,35.66
2023-03-31T03:56:49.134Z,35.70
2023-03-31T03:59:15.668Z,35.78
2023-03-31T04:01:42.002Z,35.60
2023-03-31T04:04:08.370Z,35.59
2023-03-31T04:06:34.690Z,35.56
2023-03-31T04:09:01.023Z,35.42
2023-03-31T04:11:28.143Z,35.36
2023-03-31T04:13:54.501Z,35.39
2023-03-31T04:16:20.891Z,35.73
2023-03-31T04:18:48.666Z,35.72
2023-03-31T04:21:24.368Z,35.60
2023-03-31T04:23:58.554Z,35.57
2023-03-31T04:26:30.775Z,35.42
2023-03-31T04:29:00.261Z,35.47
2023-03-31T04:31:26.931Z,35.48
2023-03-31T04:33:53.591Z,35.54
2023-03-31T04:36:20.208Z,35.37
2023-03-31T04:38:46.969Z,35.42
2023-03-31T04:41:13.832Z,35.51
2023-03-31T04:43:40.248Z,35.44
2023-03-31T04:46:06.813Z,35.50
2023-03-31T04:48:33.271Z,35.37
2023-03-31T04:50:59.608Z,35.60
2023-03-31T04:53:26.194Z,35.66
2023-03-31T04:55:52.550Z,35.61
2023-03-31T04:58:19.125Z,35.48
2023-03-31T05:00:45.456Z,35.70
2023-03-31T05:03:11.856Z,35.74
2023-03-31T05:05:38.488Z,35.62
2023-03-31T05:08:04.849Z,35.74
2023-03-31T05:10:31.420Z,35.59
2023-03-31T05:12:57.840Z,35.70
2023-03-31T05:15:26.812Z,35.76
2023-03-31T05:17:53.168Z,35.68
2023-03-31T05:20:19.828Z,35.73
2023-03-31T05:22:46.154Z,35.30
2023-03-31T05:25:18.637Z,35.47
2023-03-31T05:27:47.061Z,35.29
2023-03-31T05:30:13.908Z,35.38
2023-03-31T05:32:40.512Z,35.43
2023-03-31T05:35:07.600Z,35.47
2023-03-31T05:37:33.933Z,35.32
2023-03-31T05:40:00.402Z,35.38
2023-03-31T05:42:26.743Z,35.50
2023-03-31T05:44:53.138Z,35.55
2023-03-31T05:47:20.334Z,35.34
2023-03-31T05:49:46.754Z,35.49
2023-03-31T05:52:13.095Z,35.52
2023-03-31T05:54:39.436Z,35.52
2023-03-31T05:57:05.886Z,35.58
2023-03-31T05:59:32.280Z,35.67
2023-03-31T06:01:59.357Z,35.43
2023-03-31T06:04:25.838Z,35.51
2023-03-31T06:06:54.026Z,35.63
2023-03-31T06:09:20.377Z,35.61
2023-03-31T06:11:48.308Z,35.61
2023-03-31T06:14:16.412Z,35.89
2023-03-31T06:16:42.721Z,35.87
2023-03-31T06:19:09.106Z,35.83
2023-03-31T06:21:35.448Z,35.57
2023-03-31T06:24:01.773Z,35.82
2023-03-31T06:26:28.087Z,35.89
2023-03-31T06:28:54.393Z,35.95
2023-03-31T06:31:21.331Z,35.68
2023-03-31T06:33:47.837Z,35.68
2023-03-31T06:36:14.943Z,35.58
2023-03-31T06:38:41.522Z,35.32
2023-03-31T06:41:08.784Z,35.03
2023-03-31T06:43:35.418Z,35.30
2023-03-31T06:46:01.854Z,35.41
2023-03-31T06:48:28.502Z,35.58
2023-03-31T06:50:54.848Z,35.65
2023-03-31T06:53:22.119Z,35.75
2023-03-31T06:55:48.469Z,35.68
2023-03-31T06:58:14.806Z,35.94
2023-03-31T07:00:41.213Z,35.78
2023-03-31T07:03:09.119Z,35.93
2023-03-31T07:05:35.861Z,35.98
2023-03-31T07:08:02.559Z,36.01
2023-03-31T07:10:29.620Z,35.82
2023-03-31T07:12:55.979Z,36.19
2023-03-31T07:15:22.316Z,35.92
2023-03-31T07:17:51.126Z,35.98
2023-03-31T07:20:17.791Z,36.20
2023-03-31T07:22:44.332Z,36.21
2023-03-31T07:25:11.006Z,36.38
2023-03-31T07:27:37.333Z,36.33
2023-03-31T07:30:07.437Z,36.14
2023-03-31T07:32:33.999Z,36.42
2023-03-31T07:35:00.560Z,36.37
2023-03-31T07:37:26.877Z,36.58
2023-03-31T07:39:53.194Z,36.45
2023-03-31T07:42:19.567Z,36.34
2023-03-31T07:44:45.881Z,36.53
2023-03-31T07:47:12.198Z,36.19
2023-03-31T07:49:38.517Z,35.96
2023-03-31T07:52:04.850Z,36.02
2023-03-31T07:54:31.205Z,35.87
2023-03-31T07:57:01.578Z,36.12
2023-03-31T07:59:28.568Z,36.14
2023-03-31T08:01:54.932Z,35.95
2023-03-31T08:04:21.580Z,36.35
2023-03-31T08:06:48.171Z,36.25
2023-03-31T08:09:14.483Z,36.33
2023-03-31T08:11:40.795Z,36.15
2023-03-31T08:14:07.165Z,36.21
2023-03-31T08:16:33.534Z,36.22
2023-03-31T08:19:00.102Z,36.40
2023-03-31T08:21:26.449Z,36.22
2023-03-31T08:23:55.861Z,36.27
2023-03-31T08:26:24.267Z,36.42
2023-03-31T08:28:50.653Z,36.54
2023-03-31T08:31:18.930Z,36.43
2023-03-31T08:33:45.900Z,36.51
2023-03-31T08:36:12.538Z,36.40
2023-03-31T08:38:42.190Z,36.39
2023-03-31T08:41:14.145Z,36.44
2023-03-31T08:43:41.760Z,36.43
2023-03-31T08:46:10.921Z,36.62
2023-03-31T08:48:38.786Z,36.50
2023-03-31T08:51:11.761Z,36.56
2023-03-31T08:53:39.517Z,36.57
2023-03-31T08:56:07.037Z,36.30
2023-03-31T08:58:36.234Z,36.41
2023-03-31T09:01:21.350Z,36.07
2023-03-31T09:03:54.028Z,36.35
2023-03-31T09:06:22.546Z,36.13
2023-03-31T09:08:48.868Z,36.27
2023-03-31T09:11:20.502Z,36.28
2023-03-31T09:13:51.453Z,36.33
2023-03-31T09:16:23.837Z,36.58
2023-03-31T09:18:50.215Z,36.29
2023-03-31T09:21:18.736Z,36.26
2023-03-31T09:23:46.897Z,36.48
2023-03-31T09:26:18.935Z,36.34
2023-03-31T09:28:45.259Z,36.58
2023-03-31T09:31:13.963Z,36.52
2023-03-31T09:33:46.685Z,36.39
2023-03-31T09:36:19.372Z,36.49
2023-03-31T09:38:46.000Z,36.46
2023-03-31T09:41:12.828Z,36.52
2023-03-31T09:43:39.715Z,36.40
2023-03-31T09:46:10.600Z,36.42
2023-03-31T09:48:37.205Z,36.54
2023-03-31T09:51:07.180Z,36.34
2023-03-31T09:53:38.619Z,36.47
2023-03-31T09:56:06.290Z,36.42
2023-03-31T09:58:32.756Z,36.48
2023-03-31T10:01:02.902Z,36.31
2023-03-31T10:03:29.616Z,36.49
2023-03-31T10:05:56.620Z,36.27
2023-03-31T10:08:24.664Z,36.16
2023-03-31T10:10:51.833Z,35.87
2023-03-31T10:13:22.501Z,35.51
2023-03-31T10:15:51.913Z,35.63
2023-03-31T10:18:19.067Z,35.78
2023-03-31T10:20:51.699Z,35.74
2023-03-31T10:23:27.621Z,35.73
2023-03-31T10:25:53.945Z,35.72
2023-03-31T10:28:20.595Z,35.89
2023-03-31T10:30:47.856Z,36.06
2023-03-31T10:33:22.288Z,35.84
2023-03-31T10:35:50.451Z,35.93
2023-03-31T10:38:34.536Z,35.80
2023-03-31T10:41:00.918Z,35.87
2023-03-31T10:43:36.895Z,35.90
2023-03-31T10:46:04.233Z,35.91
2023-03-31T10:48:31.410Z,35.92
2023-03-31T10:51:14.908Z,36.03
2023-03-31T10:53:42.117Z,35.85
2023-03-31T10:56:14.550Z,35.91
2023-03-31T10:58:51.887Z,36.18
2023-03-31T11:01:24.567Z,35.96
2023-03-31T11:03:54.721Z,36.09
2023-03-31T11:06:21.090Z,36.09
2023-03-31T11:09:00.651Z,36.04
2023-03-31T11:11:31.147Z,36.02
2023-03-31T11:14:16.387Z,36.23
2023-03-31T11:17:01.876Z,35.99
2023-03-31T11:19:40.254Z,36.07
2023-03-31T11:22:09.876Z,36.07
2023-03-31T11:24:41.921Z,35.94
2023-03-31T11:27:08.180Z,35.78
2023-03-31T11:29:40.279Z,35.67
2023-03-31T11:32:16.933Z,35.59
2023-03-31T11:34:53.115Z,35.58
2023-03-31T11:37:35.418Z,35.67
2023-03-31T11:40:13.426Z,35.54
2023-03-31T11:42:42.423Z,35.94
2023-03-31T11:45:16.220Z,35.75
2023-03-31T11:47:44.594Z,35.75
2023-03-31T11:50:18.665Z,35.67
2023-03-31T11:52:48.225Z,35.56
2023-03-31T11:55:18.250Z,35.83
2023-03-31T11:57:51.031Z,35.76
2023-03-31T12:00:25.139Z,35.68
2023-03-31T12:05:17.942Z,35.92
2023-03-31T12:07:47.274Z,35.64
2023-03-31T12:10:20.540Z,35.73
2023-03-31T12:12:57.377Z,35.71
2023-03-31T12:15:24.829Z,36.01
2023-03-31T12:17:56.317Z,35.89
2023-03-31T12:20:33.322Z,35.95
2023-03-31T12:23:00.173Z,36.03
2023-03-31T12:25:27.187Z,36.03
2023-03-31T12:27:54.778Z,35.95
2023-03-31T12:30:29.293Z,36.00
2023-03-31T12:32:56.733Z,35.85
2023-03-31T12:35:27.360Z,35.84
2023-03-31T12:37:53.613Z,35.75
2023-03-31T12:40:38.616Z,35.66
2023-03-31T12:43:23.943Z,35.63
2023-03-31T12:46:00.514Z,35.73
2023-03-31T12:48:43.218Z,35.49
2023-03-31T12:51:20.730Z,35.23
2023-03-31T12:53:46.992Z,35.25
2023-03-31T12:56:13.327Z,35.19
2023-03-31T12:58:40.653Z,35.24
2023-03-31T13:01:07.762Z,35.54
2023-03-31T13:03:34.561Z,35.35
2023-03-31T13:06:01.224Z,35.28
2023-03-31T13:08:46.488Z,35.37
2023-03-31T13:11:12.969Z,35.35
2023-03-31T13:14:00.707Z,35.47
2023-03-31T13:16:27.296Z,35.47
2023-03-31T13:18:53.903Z,35.27
2023-03-31T13:21:20.280Z,35.29
2023-03-31T13:23:46.655Z,35.68
2023-03-31T13:26:31.721Z,35.74
2023-03-31T13:29:10.214Z,35.76
2023-03-31T13:31:55.247Z,35.66
2023-03-31T13:34:21.577Z,35.88
2023-03-31T13:37:06.753Z,35.89
2023-03-31T13:39:52.097Z,35.88
2023-03-31T13:42:21.549Z,36.03
2023-03-31T13:45:01.180Z,35.82
2023-03-31T13:47:34.411Z,35.89
2023-03-31T13:50:04.017Z,35.62
2023-03-31T13:52:33.284Z,35.89
2023-03-31T13:55:18.432Z,35.81
2023-03-31T13:57:51.007Z,35.75
2023-03-31T14:00:27.195Z,35.62
2023-03-31T14:03:09.196Z,35.91
2023-03-31T14:05:39.664Z,35.66
2023-03-31T14:08:07.939Z,35.94
2023-03-31T14:10:34.950Z,35.64
2023-03-31T14:13:07.975Z,35.97
2023-03-31T14:15:35.376Z,35.86
2023-03-31T14:18:02.115Z,36.01
2023-03-31T14:20:30.721Z,35.75
2023-03-31T14:23:15.939Z,35.87
2023-03-31T14:25:42.806Z,35.75
2023-03-31T14:28:09.648Z,35.81
2023-03-31T14:30:52.728Z,36.01
2023-03-31T14:33:25.033Z,36.10
2023-03-31T14:35:51.351Z,35.77
2023-03-31T14:38:18.302Z,35.89
2023-03-31T14:40:45.614Z,36.01
2023-03-31T14:43:18.225Z,35.92
2023-03-31T14:45:44.544Z,36.09
2023-03-31T14:48:13.461Z,36.13
2023-03-31T14:50:42.186Z,35.89
2023-03-31T14:53:14.057Z,36.14
2023-03-31T14:55:57.301Z,35.97
2023-03-31T14:58:32.342Z,35.99
2023-03-31T15:00:58.723Z,35.71
2023-03-31T15:03:25.632Z,35.86
2023-03-31T15:05:51.940Z,35.79
2023-03-31T15:08:19.374Z,35.57
2023-03-31T15:10:49.261Z,35.76
2023-03-31T15:13:17.188Z,35.68
2023-03-31T15:15:46.163Z,35.81
2023-03-31T15:18:13.475Z,35.83
2023-03-31T15:20:40.766Z,35.89
2023-03-31T15:23:21.250Z,35.71
2023-03-31T15:25:47.566Z,35.74
2023-03-31T15:28:14.793Z,35.87
2023-03-31T15:30:41.227Z,35.85
2023-03-31T15:33:18.293Z,35.88
2023-03-31T15:35:46.210Z,35.77
2023-03-31T15:38:12.534Z,35.88
2023-03-31T15:40:40.504Z,36.02
2023-03-31T15:43:25.532Z,35.94
2023-03-31T15:45:53.076Z,35.97
2023-03-31T15:48:23.694Z,35.94
2023-03-31T15:50:50.008Z,35.83
2023-03-31T15:53:24.418Z,35.88
2023-03-31T15:55:52.065Z,35.98
2023-03-31T15:58:18.428Z,36.15
2023-03-31T16:00:48.143Z,35.93
2023-03-31T16:03:16.984Z,36.01
2023-03-31T16:05:54.748Z,36.17
2023-03-31T16:08:26.497Z,36.02
2023-03-31T16:10:57.118Z,36.12
2023-03-31T16:13:23.490Z,35.89
2023-03-31T16:15:49.924Z,35.66
2023-03-31T16:18:17.523Z,35.76
2023-03-31T16:20:46.069Z,35.77
2023-03-31T16:23:16.252Z,35.60
2023-03-31T16:25:42.660Z,35.81
2023-03-31T16:28:08.978Z,35.63
2023-03-31T16:30:36.431Z,35.62
2023-03-31T16:33:03.031Z,35.93
2023-03-31T16:35:34.349Z,35.74
2023-03-31T16:38:01.827Z,35.75
2023-03-31T16:40:28.959Z,35.63
2023-03-31T16:43:07.463Z,35.64
2023-03-31T16:45:33.800Z,35.74
2023-03-31T16:48:08.910Z,35.61
2023-03-31T16:50:41.954Z,35.69
2023-03-31T16:53:09.167Z,35.86
2023-03-31T16:55:35.548Z,35.75
2023-03-31T16:58:03.494Z,35.82
2023-03-31T17:00:30.415Z,35.91
2023-03-31T17:02:57.810Z,36.09
2023-03-31T17:05:24.305Z,35.78
2023-03-31T17:07:50.675Z,35.94
2023-03-31T17:10:17.403Z,36.00
2023-03-31T17:12:43.707Z,35.83
2023-03-31T17:15:10.395Z,35.90
2023-03-31T17:17:36.914Z,35.96
2023-03-31T17:20:04.298Z,36.00
2023-03-31T17:22:30.626Z,35.79
2023-03-31T17:24:58.421Z,35.53
2023-03-31T17:27:25.404Z,35.69
2023-03-31T17:29:51.952Z,35.58
2023-03-31T17:32:19.027Z,35.58
2023-03-31T17:34:47.826Z,35.81
2023-03-31T17:37:17.094Z,35.89
2023-03-31T17:39:43.795Z,36.03
2023-03-31T17:42:10.607Z,35.88
2023-03-31T17:44:37.142Z,36.26
2023-03-31T17:47:03.461Z,36.30
2023-03-31T17:49:29.848Z,36.21
2023-03-31T17:51:57.285Z,36.08
2023-03-31T17:54:23.626Z,36.40
2023-03-31T17:56:50.259Z,36.43
2023-03-31T17:59:17.169Z,36.43
2023-03-31T18:01:43.765Z,36.41
2023-03-31T18:04:10.275Z,36.51
2023-03-31T18:06:36.668Z,36.31
2023-03-31T18:09:03.150Z,36.48
2023-03-31T18:11:31.878Z,36.35
2023-03-31T18:14:01.773Z,36.42
2023-03-31T18:16:29.185Z,36.46
2023-03-31T18:18:55.799Z,36.46
2023-03-31T18:21:23.865Z,36.57
2023-03-31T18:23:52.645Z,36.69
2023-03-31T18:26:19.265Z,36.43
2023-03-31T18:28:45.865Z,36.42
2023-03-31T18:31:12.462Z,36.48
2023-03-31T18:33:39.092Z,37.32
2023-03-31T18:36:05.941Z,37.49
2023-03-31T18:38:32.603Z,37.54
2023-03-31T18:40:58.951Z,37.71
2023-03-31T18:43:25.898Z,37.23
2023-03-31T18:45:52.518Z,37.43
2023-03-31T18:48:19.178Z,38.03
2023-03-31T18:50:46.013Z,37.21
2023-03-31T18:53:15.078Z,37.84
2023-03-31T18:55:41.810Z,38.14
2023-03-31T18:58:08.775Z,37.98
2023-03-31T19:00:35.903Z,37.90
2023-03-31T19:03:02.738Z,37.77
2023-03-31T19:05:30.069Z,38.36
2023-03-31T19:07:56.507Z,37.98
2023-03-31T19:10:22.835Z,38.13
2023-03-31T19:12:49.195Z,37.85
2023-03-31T19:15:15.747Z,38.27
2023-03-31T19:17:42.123Z,37.67
2023-03-31T19:20:08.768Z,37.86
2023-03-31T19:22:35.088Z,38.10
2023-03-31T19:25:01.661Z,38.00
2023-03-31T19:27:28.014Z,38.14
2023-03-31T19:29:54.334Z,38.04
2023-03-31T19:32:20.898Z,38.04
2023-03-31T19:34:47.284Z,37.93
2023-03-31T19:37:13.699Z,37.96
2023-03-31T19:39:40.244Z,38.11
2023-03-31T19:42:06.549Z,38.04
2023-03-31T19:44:32.878Z,38.15
2023-03-31T19:46:59.224Z,38.04
2023-03-31T19:49:25.788Z,37.79
2023-03-31T19:51:52.382Z,37.48
2023-03-31T19:54:18.741Z,37.47
2023-03-31T19:56:45.562Z,37.34
2023-03-31T19:59:11.891Z,37.59
2023-03-31T20:01:38.728Z,37.42
2023-03-31T20:04:05.348Z,37.58
2023-03-31T20:06:31.883Z,37.63
2023-03-31T20:09:00.394Z,37.78
2023-03-31T20:11:27.521Z,37.62
2023-03-31T20:13:53.913Z,37.78
2023-03-31T20:16:20.842Z,37.61
2023-03-31T20:18:53.924Z,37.63
2023-03-31T20:21:20.496Z,37.52
2023-03-31T20:23:46.944Z,37.60
2023-03-31T20:26:14.199Z,37.72
2023-03-31T20:28:40.602Z,37.58
2023-03-31T20:31:11.422Z,37.58
2023-03-31T20:33:38.030Z,37.49
2023-03-31T20:36:08.184Z,37.63
2023-03-31T20:38:37.827Z,37.55
2023-03-31T20:41:04.156Z,37.65
2023-03-31T20:43:30.519Z,37.57
2023-03-31T20:46:02.589Z,37.71
2023-03-31T20:48:32.534Z,37.59
2023-03-31T20:50:58.861Z,37.55
2023-03-31T20:53:25.188Z,37.55
2023-03-31T20:55:51.784Z,37.76
2023-03-31T20:58:18.141Z,37.44
2023-03-31T21:00:44.794Z,37.68
2023-03-31T21:03:11.257Z,37.77
2023-03-31T21:05:43.969Z,37.72
2023-03-31T21:08:10.651Z,37.52
2023-03-31T21:10:39.020Z,37.57
2023-03-31T21:13:05.327Z,37.70
2023-03-31T21:15:31.854Z,37.46
2023-03-31T21:17:58.393Z,37.83
2023-03-31T21:20:24.716Z,37.66
2023-03-31T21:22:51.115Z,37.75
2023-03-31T21:25:17.423Z,37.70
2023-03-31T21:27:43.749Z,37.64
2023-03-31T21:30:10.407Z,37.58
2023-03-31T21:32:36.749Z,37.53
2023-03-31T21:35:03.102Z,37.82
2023-03-31T21:37:29.740Z,37.62
2023-03-31T21:39:56.067Z,37.70
2023-03-31T21:42:22.610Z,37.74
2023-03-31T21:44:49.282Z,37.83
2023-03-31T21:47:15.735Z,37.79
2023-03-31T21:49:42.052Z,37.55
2023-03-31T21:52:09.440Z,37.82
2023-03-31T21:54:35.761Z,37.76
2023-03-31T21:57:02.119Z,37.74
2023-03-31T21:59:28.468Z,37.89
2023-03-31T22:01:54.837Z,37.92
2023-03-31T22:04:21.819Z,38.01
2023-03-31T22:06:48.477Z,37.80
2023-03-31T22:09:15.246Z,38.00
2023-03-31T22:11:42.047Z,37.85
2023-03-31T22:14:08.427Z,38.15
2023-03-31T22:16:34.763Z,37.96
2023-03-31T22:19:01.082Z,38.10
2023-03-31T22:21:27.440Z,38.05
2023-03-31T22:23:54.456Z,37.90
2023-03-31T22:26:21.686Z,38.05
2023-03-31T22:28:48.185Z,38.19
2023-03-31T22:31:14.525Z,38.06
2023-03-31T22:33:40.885Z,38.10
2023-03-31T22:36:07.491Z,38.08
2023-03-31T22:38:33.867Z,38.13
2023-03-31T22:41:00.472Z,38.26
2023-03-31T22:43:27.178Z,38.37
2023-03-31T22:45:53.532Z,38.23
2023-03-31T22:48:19.914Z,38.22
2023-03-31T22:50:46.287Z,38.30
2023-03-31T22:53:12.605Z,38.29
2023-03-31T22:55:42.630Z,38.26
2023-03-31T22:58:08.954Z,38.13
2023-03-31T23:00:35.646Z,38.21
2023-03-31T23:03:02.087Z,38.07
2023-03-31T23:05:28.493Z,38.05
2023-03-31T23:07:54.817Z,38.12
2023-03-31T23:10:21.859Z,37.86
2023-03-31T23:12:48.179Z,38.15
2023-03-31T23:15:14.501Z,38.01
2023-03-31T23:17:40.871Z,38.07
2023-03-31T23:20:07.484Z,38.03
2023-03-31T23:22:33.989Z,37.94
2023-03-31T23:25:00.302Z,37.99
2023-03-31T23:27:26.611Z,37.89
2023-03-31T23:29:52.940Z,38.04
2023-03-31T23:32:19.369Z,37.95
2023-03-31T23:34:45.854Z,37.86
2023-03-31T23:37:12.652Z,37.74
2023-03-31T23:39:39.101Z,37.84
2023-03-31T23:42:06.113Z,37.89
2023-03-31T23:44:32.694Z,37.84
2023-03-31T23:46:59.155Z,37.81
2023-03-31T23:49:25.527Z,37.80
2023-03-31T23:51:51.945Z,37.84
2023-03-31T23:54:18.261Z,37.70
2023-03-31T23:56:44.642Z,37.83
2023-03-31T23:59:11.184Z,37.67
